»·PEaware :: N973SE KBFL-KSBP

N973SE :: KBFL-KSBP

FLIGHT INFORMATION

Flight Status: Arrived
Operator: Privately registered:
United States
More flights under this callsign
Pilot: Stig E. (4778)
Aircraft: CESSNA 310
(C310)
More flights by this aircraft type
Origin: KBFL Meadows
United States
Destination: KSBP San Luis Co Regl
United States
More flights between these airports :: More routes between these airports
Route: FLW HALDA
File this flight plan on PilotEdge
Remarks:
Altitude:
(Current/Filed)
6,500ft
Speed:
(Current/Filed)
170kts
Departed: 21-Jan-19 12:58 AM
Arrived: 21-Jan-19 01:34 AM
Distance/Time
Traveled:
78nm/0:36
Distance/Time
To Go:
Arrived

Flight Plot

Page will automatically refresh every two minutes.

Flight plan parsing failed; only flown route is shown


Map Options




Map Legend


Flown Route
Filed Route
Departure Airport
Arrival Airport
Navaid (VOR, NDB)
Fix

Horizontal Profiles

Position Reports

Time Latitude Longitude Heading Altitude Ground
Speed
21-Jan-19 00:45 35.435714 -119.052044 180 509ft 0kts
21-Jan-19 00:47 35.435714 -119.052044 180 509ft 0kts
21-Jan-19 00:48 35.435714 -119.052044 180 509ft 0kts
21-Jan-19 00:49 35.435714 -119.052044 180 509ft 0kts
21-Jan-19 00:50 35.435714 -119.052044 180 509ft 0kts
21-Jan-19 00:51 35.435714 -119.052044 180 509ft 0kts
21-Jan-19 00:52 35.435415 -119.053443 225 501ft 14kts
21-Jan-19 00:53 35.431148 -119.050720 134 493ft 23kts
21-Jan-19 00:54 35.426652 -119.045210 135 484ft 21kts
21-Jan-19 00:55 35.425656 -119.044765 243 480ft 0kts
21-Jan-19 00:56 35.425656 -119.044765 243 480ft 0kts
21-Jan-19 00:57 35.426062 -119.046766 314 479ft 13kts
21-Jan-19 00:58 35.441236 -119.065814 311 1167ft 125kts
21-Jan-19 00:59 35.452440 -119.106128 225 2212ft 157kts
21-Jan-19 01:00 35.418022 -119.141176 222 3219ft 163kts
21-Jan-19 01:01 35.385183 -119.179138 241 4225ft 160kts
21-Jan-19 01:02 35.363621 -119.226724 247 5225ft 159kts
21-Jan-19 01:02 35.346762 -119.266764 248 6056ft 158kts
21-Jan-19 01:04 35.321980 -119.325898 247 6500ft 177kts
21-Jan-19 01:04 35.303189 -119.370596 247 6498ft 177kts
21-Jan-19 01:06 35.276804 -119.433296 247 6498ft 177kts
21-Jan-19 01:07 35.254122 -119.487105 247 6498ft 177kts
21-Jan-19 01:08 35.231434 -119.540846 247 6502ft 177kts
21-Jan-19 01:08 35.212655 -119.585327 247 6529ft 172kts
21-Jan-19 01:09 35.191183 -119.636633 248 6547ft 167kts
21-Jan-19 01:10 35.169543 -119.687906 247 6569ft 169kts
21-Jan-19 01:12 35.143864 -119.748452 247 6587ft 173kts
21-Jan-19 01:12 35.125209 -119.792326 247 6593ft 174kts
21-Jan-19 01:13 35.102677 -119.845229 247 6594ft 174kts
21-Jan-19 01:14 35.097174 -119.899224 277 6590ft 151kts
21-Jan-19 01:15 35.101863 -119.947881 278 6546ft 139kts
21-Jan-19 01:16 35.106934 -119.996055 279 6064ft 145kts
21-Jan-19 01:17 35.112244 -120.045207 280 5563ft 145kts
21-Jan-19 01:18 35.117756 -120.094495 280 5069ft 145kts
21-Jan-19 01:19 35.123048 -120.143542 282 4570ft 145kts
21-Jan-19 01:20 35.128265 -120.192186 282 4050ft 144kts
21-Jan-19 01:21 35.133134 -120.237792 279 3994ft 128kts
21-Jan-19 01:22 35.137650 -120.279807 280 3994ft 123kts
21-Jan-19 01:23 35.142117 -120.321362 281 4001ft 123kts
21-Jan-19 01:24 35.146724 -120.365022 281 3450ft 124kts
21-Jan-19 01:25 35.150777 -120.403663 283 3171ft 101kts
21-Jan-19 01:26 35.154159 -120.436111 281 3624ft 91kts
21-Jan-19 01:27 35.157539 -120.467695 282 3765ft 94kts
21-Jan-19 01:28 35.161293 -120.503383 281 3104ft 109kts
21-Jan-19 01:29 35.175102 -120.535378 304 2300ft 109kts
21-Jan-19 01:30 35.192847 -120.565598 308 1557ft 109kts
21-Jan-19 01:31 35.209059 -120.592549 307 993ft 93kts
21-Jan-19 01:32 35.224140 -120.618214 307 554ft 92kts
21-Jan-19 01:33 35.237168 -120.640670 306 216ft 39kts
21-Jan-19 01:34 35.239470 -120.642771 124 216ft 15kts
21-Jan-19 01:35 35.238865 -120.639635 86 215ft 0kts
21-Jan-19 01:36 35.238865 -120.639635 86 215ft 0kts

Navigation Log

Ident Type
Flight plan parsing failed, navigation log unavailable